Time;durP1;ratioP1;P1;durP2;ratioP2;P2;SDS_P1;SDS_P2;PMS_P1;PMS_P2;Temp;Humidity;BMP_temperature;BMP_pressure;BME280_temperature;BME280_humidity;BME280_pressure;Samples;Min_cycle;Max_cycle;Signal;HPM_P1;HPM_P2
2022/06/07 00:00:16;;;;;;;46.45;8.80;;;14.70;1.00;;;;;;5109001;28;20192;-88
2022/06/07 00:02:43;;;;;;;117.77;11.27;;;14.70;1.00;;;;;;5111321;28;20189;-89
2022/06/07 00:05:11;;;;;;;71.20;10.30;;;14.80;1.00;;;;;;5112273;28;20203;-91
2022/06/07 00:07:38;;;;;;;55.63;10.47;;;14.80;1.00;;;;;;5112095;28;20739;-88
2022/06/07 00:10:05;;;;;;;58.73;10.63;;;14.80;1.00;;;;;;5112176;28;20197;-90
2022/06/07 00:12:33;;;;;;;89.15;10.70;;;14.80;99.90;;;;;;5114640;28;20201;-89
2022/06/07 00:15:00;;;;;;;81.53;11.57;;;14.90;1.00;;;;;;5116172;28;20397;-88
2022/06/07 00:17:29;;;;;;;111.93;11.77;;;14.90;1.00;;;;;;5115878;28;20639;-90
2022/06/07 00:19:56;;;;;;;155.40;14.10;;;15.00;18.00;;;;;;5115839;28;20275;-88
2022/06/07 00:22:23;;;;;;;111.20;11.23;;;15.00;99.90;;;;;;5116036;28;20190;-91
2022/06/07 00:24:50;;;;;;;148.03;12.00;;;15.00;1.00;;;;;;5105458;28;20191;-88
2022/06/07 00:27:17;;;;;;;81.37;10.00;;;15.00;1.00;;;;;;5095155;28;20714;-88
2022/06/07 00:29:45;;;;;;;71.40;9.47;;;15.00;1.00;;;;;;5113552;28;20198;-90
2022/06/07 00:32:14;;;;;;;106.40;10.77;;;15.00;1.00;;;;;;5113534;28;20193;-88
2022/06/07 00:34:43;;;;;;;79.20;10.20;;;15.00;1.00;;;;;;5114724;28;20210;-88
2022/06/07 00:37:10;;;;;;;69.47;10.47;;;15.00;99.90;;;;;;5115422;28;20193;-89
2022/06/07 00:39:37;;;;;;;95.63;10.87;;;15.00;99.90;;;;;;5115285;28;20547;-89
2022/06/07 00:42:05;;;;;;;93.17;11.93;;;15.00;99.90;;;;;;5115607;28;20198;-88
2022/06/07 00:44:35;;;;;;;50.03;8.63;;;15.00;1.00;;;;;;5115164;28;20204;-88
2022/06/07 00:47:06;;;;;;;30.50;8.23;;;15.00;99.90;;;;;;5114687;28;20228;-90
2022/06/07 00:49:37;;;;;;;44.90;8.47;;;14.90;99.90;;;;;;5115462;28;20526;-90
2022/06/07 00:52:06;;;;;;;34.70;9.07;;;14.90;99.90;;;;;;5104807;28;20258;-89
2022/06/07 00:54:34;;;;;;;15.23;7.10;;;14.90;99.90;;;;;;5094732;28;20196;-88
2022/06/07 00:57:02;;;;;;;15.93;6.70;;;14.90;99.90;;;;;;5098729;28;20663;-88
2022/06/07 00:59:30;;;;;;;12.17;6.67;;;14.80;99.90;;;;;;5094438;28;20670;-88
2022/06/07 01:01:57;;;;;;;13.23;6.37;;;14.80;1.00;;;;;;5096498;28;20219;-87
2022/06/07 01:04:27;;;;;;;21.67;6.83;;;14.70;1.00;;;;;;5098389;28;20201;-90
2022/06/07 01:12:25;;;;;;;78.63;8.40;;;14.60;99.90;;;;;;5115122;28;20200;-90
2022/06/07 01:14:52;;;;;;;99.03;8.83;;;14.60;99.90;;;;;;5114625;28;20285;-90
2022/06/07 01:17:20;;;;;;;103.40;9.17;;;14.60;99.90;;;;;;5114766;28;20204;-87
2022/06/07 01:19:48;;;;;;;97.90;9.33;;;14.60;99.90;;;;;;5114282;28;20197;-88
2022/06/07 01:22:18;;;;;;;101.13;7.87;;;14.60;99.90;;;;;;5114228;28;20566;-88
2022/06/07 01:24:45;;;;;;;75.47;7.20;;;14.60;1.00;;;;;;5109437;28;20192;-88
2022/06/07 01:27:13;;;;;;;46.20;6.90;;;14.60;1.00;;;;;;5105950;28;20208;-90
2022/06/07 01:29:42;;;;;;;39.57;6.37;;;14.60;1.00;;;;;;5114153;28;20197;-87
2022/06/07 01:32:10;;;;;;;36.57;6.20;;;14.60;1.00;;;;;;5111239;28;20196;-89
2022/06/07 01:34:41;;;;;;;46.37;6.73;;;14.60;1.00;;;;;;5110528;28;20251;-87
2022/06/07 01:37:09;;;;;;;38.07;6.60;;;14.60;1.00;;;;;;5114290;28;20192;-90
2022/06/07 01:42:22;;;;;;;27.83;6.30;;;14.60;1.00;;;;;;5113960;28;20204;-88
2022/06/07 01:44:50;;;;;;;20.40;5.93;;;14.60;1.00;;;;;;5113868;28;20197;-88
2022/06/07 01:47:18;;;;;;;19.63;5.13;;;14.50;99.90;;;;;;5113973;28;20223;-89
2022/06/07 01:49:46;;;;;;;23.03;5.33;;;14.50;99.90;;;;;;5114157;28;20667;-89
2022/06/07 01:52:15;;;;;;;18.07;5.80;;;14.50;99.90;;;;;;5113970;28;20658;-88
2022/06/07 01:54:43;;;;;;;25.27;6.13;;;14.50;99.90;;;;;;5113708;28;20203;-88
2022/06/07 01:57:11;;;;;;;26.00;5.53;;;14.50;99.90;;;;;;5114347;28;20196;-89
2022/06/07 01:59:39;;;;;;;25.43;6.00;;;14.40;99.90;;;;;;5113692;28;20587;-88
2022/06/07 02:02:07;;;;;;;42.13;6.57;;;14.40;99.90;;;;;;5110666;28;20691;-88
2022/06/07 02:04:37;;;;;;;29.93;5.83;;;14.40;99.90;;;;;;5106294;28;20200;-89
2022/06/07 02:07:05;;;;;;;34.53;5.70;;;14.40;99.90;;;;;;5113807;28;20220;-89
2022/06/07 02:09:32;;;;;;;43.60;6.37;;;14.40;99.90;;;;;;5113654;28;20251;-89
2022/06/07 02:12:01;;;;;;;34.70;6.37;;;14.30;99.90;;;;;;5113070;28;20198;-88
2022/06/07 02:14:29;;;;;;;23.50;5.53;;;14.40;99.90;;;;;;5113674;28;20603;-89
2022/06/07 02:16:56;;;;;;;25.47;5.63;;;14.40;99.90;;;;;;5113827;28;20199;-88
2022/06/07 02:19:24;;;;;;;34.57;6.43;;;14.30;99.90;;;;;;5113328;28;20205;-87
2022/06/07 02:21:51;;;;;;;29.37;6.40;;;14.40;99.90;;;;;;5106019;28;20251;-89
2022/06/07 02:24:18;;;;;;;42.77;7.37;;;14.30;99.90;;;;;;5099370;28;20248;-88
2022/06/07 02:26:48;;;;;;;30.17;6.00;;;14.30;99.90;;;;;;5096815;28;20228;-88
2022/06/07 02:29:22;;;;;;;40.40;6.70;;;14.30;99.90;;;;;;5106486;28;20187;-89
2022/06/07 02:31:56;;;;;;;20.70;6.33;;;14.30;99.90;;;;;;5102782;28;20197;-89
2022/06/07 02:34:25;;;;;;;40.07;7.33;;;14.30;99.90;;;;;;5099019;28;20645;-89
2022/06/07 02:36:58;;;;;;;29.00;6.50;;;14.30;99.90;;;;;;5092771;28;20259;-87
2022/06/07 02:39:25;;;;;;;36.57;6.67;;;14.30;99.90;;;;;;5086962;28;20196;-90
2022/06/07 02:41:54;;;;;;;26.43;6.07;;;14.20;99.90;;;;;;5084439;28;20206;-88
2022/06/07 02:44:22;;;;;;;25.63;6.50;;;14.20;99.90;;;;;;5092449;28;20224;-89
2022/06/07 02:46:49;;;;;;;34.30;6.70;;;14.20;99.90;;;;;;5087711;28;20282;-86
2022/06/07 02:49:16;;;;;;;22.03;6.50;;;14.20;99.90;;;;;;5079337;28;20197;-88
2022/06/07 02:51:43;;;;;;;37.27;7.10;;;14.20;1.00;;;;;;5092755;28;20226;-86
2022/06/07 02:54:14;;;;;;;21.20;6.37;;;14.20;1.00;;;;;;5080238;28;20650;-90
2022/06/07 02:56:45;;;;;;;31.67;6.70;;;14.20;1.00;;;;;;5110837;28;20224;-90
2022/06/07 02:59:22;;;;;;;21.90;6.57;;;14.20;1.00;;;;;;5096454;28;20201;-90
2022/06/07 03:01:50;;;;;;;14.37;6.30;;;14.20;1.00;;;;;;5116657;28;20199;-88
2022/06/07 03:04:17;;;;;;;14.10;5.97;;;14.20;1.00;;;;;;5096494;28;20673;-87
2022/06/07 03:06:45;;;;;;;21.07;6.73;;;14.20;1.00;;;;;;5092569;28;20573;-88
2022/06/07 03:09:12;;;;;;;17.40;6.67;;;14.20;1.00;;;;;;5100632;28;20200;-87
2022/06/07 03:11:45;;;;;;;14.37;6.27;;;14.20;99.90;;;;;;5101362;28;20207;-91
2022/06/07 03:14:12;;;;;;;12.37;6.37;;;14.20;99.90;;;;;;5102197;28;20272;-86
2022/06/07 03:16:43;;;;;;;9.70;6.60;;;14.20;99.90;;;;;;5094180;28;20208;-93
2022/06/07 03:19:12;;;;;;;10.47;6.97;;;14.20;99.90;;;;;;5091338;28;20685;-90
2022/06/07 03:21:39;;;;;;;9.97;6.93;;;14.20;99.90;;;;;;5092090;28;20650;-87
2022/06/07 03:24:07;;;;;;;9.73;6.87;;;14.20;99.90;;;;;;5098341;28;20218;-90
2022/06/07 03:26:44;;;;;;;10.90;7.07;;;14.20;99.90;;;;;;5089158;28;20197;-91
2022/06/07 03:29:11;;;;;;;13.80;7.63;;;14.30;1.00;;;;;;5113897;28;20214;-88
2022/06/07 03:31:38;;;;;;;11.53;7.37;;;14.40;1.00;;;;;;5085034;28;20205;-88
2022/06/07 03:34:10;;;;;;;11.67;7.60;;;14.50;1.00;;;;;;5114042;28;20200;-91
2022/06/07 03:36:50;;;;;;;12.13;7.37;;;14.60;1.00;;;;;;5133679;28;20208;-90
2022/06/07 03:46:06;;;;;;;12.10;8.57;;;15.10;1.00;;;;;;4984212;28;20204;-91
2022/06/07 03:48:33;;;;;;;;;;;15.90;1.00;;;;;;5127628;28;20238;-90
2022/06/07 03:51:09;;;;;;;13.80;7.88;;;16.60;1.50;;;;;;5127142;28;20051;-92
2022/06/07 03:54:08;;;;;;;8.82;6.93;;;17.20;22.40;;;;;;5140345;28;20189;-91
2022/06/07 03:56:44;;;;;;;8.15;6.32;;;17.80;1.00;;;;;;5120869;28;20195;-92
2022/06/07 03:59:30;;;;;;;;;;;;;;;;;;;;;
2022/06/07 04:02:00;;;;;;;;;;;18.90;1.00;;;;;;5122679;28;20032;-90
2022/06/07 04:10:33;;;;;;;;;;;21.40;1.00;;;;;;5059326;28;20050;-91
2022/06/07 04:13:00;;;;;;;;;;;22.40;1.00;;;;;;5075060;28;19926;-95
2022/06/07 04:15:50;;;;;;;7.30;6.05;;;23.40;1.00;;;;;;5140405;28;20210;-94
2022/06/07 04:18:43;;;;;;;;;;;;;;;;;;;;;
2022/06/07 04:21:33;;;;;;;5.82;5.10;;;25.10;99.90;;;;;;5140737;28;20197;-95
2022/06/07 04:24:12;;;;;;;5.93;5.20;;;26.00;1.00;;;;;;5140368;28;20199;-93
2022/06/07 04:26:56;;;;;;;5.88;4.80;;;26.70;99.90;;;;;;5123656;28;20186;-93
2022/06/07 04:29:59;;;;;;;5.93;5.18;;;27.50;1.00;;;;;;5124339;28;20394;-91
2022/06/07 04:32:26;;;;;;;5.25;4.75;;;28.10;1.00;;;;;;5130055;28;20194;-89
2022/06/07 04:34:54;;;;;;;5.85;5.35;;;28.60;99.90;;;;;;5114804;28;20191;-88
2022/06/07 04:37:21;;;;;;;5.32;4.82;;;29.10;99.90;;;;;;5105825;28;20210;-89
2022/06/07 04:39:48;;;;;;;5.55;4.88;;;29.60;90.80;;;;;;5118254;28;20202;-89
2022/06/07 04:42:17;;;;;;;7.97;5.43;;;30.10;4.20;;;;;;5116139;28;20247;-91
2022/06/07 04:44:44;;;;;;;5.50;5.00;;;30.70;1.00;;;;;;5116214;28;20218;-88
2022/06/07 04:47:11;;;;;;;5.53;5.03;;;31.20;1.00;;;;;;5115558;28;20204;-88
2022/06/07 04:49:38;;;;;;;7.82;6.68;;;31.70;1.00;;;;;;5115987;28;20191;-88
2022/06/07 04:52:05;;;;;;;6.97;6.38;;;32.10;1.00;;;;;;5115385;28;20195;-89
2022/06/07 04:54:32;;;;;;;8.13;7.38;;;32.30;1.00;;;;;;5115246;28;20195;-86
2022/06/07 04:56:59;;;;;;;10.45;9.55;;;32.50;1.00;;;;;;5123627;27;20187;-88
2022/06/07 04:59:28;;;;;;;6.60;6.00;;;32.90;1.00;;;;;;5096202;28;20195;-89
2022/06/07 05:01:55;;;;;;;6.15;5.55;;;33.40;1.00;;;;;;5098703;28;20188;-89
2022/06/07 05:04:22;;;;;;;6.32;5.65;;;33.90;1.00;;;;;;5099509;28;20195;-89
2022/06/07 05:06:50;;;;;;;6.00;5.20;;;34.50;1.00;;;;;;5099965;28;20191;-90
2022/06/07 05:09:20;;;;;;;5.07;4.68;;;34.90;1.00;;;;;;5098228;28;20191;-91
2022/06/07 05:12:25;;;;;;;5.43;4.93;;;34.80;1.00;;;;;;5115149;28;20577;-95
2022/06/07 05:15:10;;;;;;;6.68;5.10;;;34.50;1.00;;;;;;5116681;28;20251;-95
2022/06/07 05:17:48;;;;;;;5.22;4.72;;;34.40;1.00;;;;;;5107610;28;20207;-92
2022/06/07 05:20:20;;;;;;;6.75;5.03;;;34.70;1.00;;;;;;5115950;28;20216;-96
2022/06/07 05:23:02;;;;;;;5.40;4.90;;;35.20;1.00;;;;;;5113661;28;20199;-93
2022/06/07 05:25:30;;;;;;;7.38;5.25;;;35.60;1.00;;;;;;5124234;28;20246;-93
2022/06/07 05:28:04;;;;;;;5.47;4.43;;;35.80;1.00;;;;;;5124016;28;20199;-92
2022/06/07 05:31:10;;;;;;;5.95;4.65;;;36.10;1.00;;;;;;5110818;28;20201;-93
2022/06/07 05:33:45;;;;;;;5.53;5.03;;;36.20;1.00;;;;;;5117074;28;20932;-95
2022/06/07 05:36:12;;;;;;;5.45;4.68;;;36.10;1.00;;;;;;5122886;28;20214;-91
2022/06/07 05:38:46;;;;;;;5.30;4.90;;;35.90;1.00;;;;;;5122459;28;20229;-94
2022/06/07 05:41:32;;;;;;;5.30;4.75;;;35.90;1.00;;;;;;5112763;28;20203;-94
2022/06/07 05:52:28;;;;;;;5.82;5.25;;;35.90;1.00;;;;;;5118970;28;20183;-91
2022/06/07 06:22:10;;;;;;;6.45;5.30;;;36.50;1.00;;;;;;5131449;27;20546;-88
2022/06/07 06:24:37;;;;;;;6.82;5.65;;;41.00;1.00;;;;;;5124671;27;20194;-89
2022/06/07 06:37:16;;;;;;;6.70;5.22;;;39.80;1.00;;;;;;5105831;28;20611;-92
2022/06/07 06:39:43;;;;;;;5.78;4.80;;;39.70;1.00;;;;;;5115531;27;20191;-88
2022/06/07 06:42:10;;;;;;;5.45;4.95;;;40.00;1.00;;;;;;5123999;28;20201;-88
2022/06/07 06:45:01;;;;;;;7.00;5.10;;;40.20;1.00;;;;;;5117684;27;20217;-92
2022/06/07 06:47:28;;;;;;;6.00;5.40;;;40.60;1.00;;;;;;5115371;28;20194;-88
2022/06/07 06:49:55;;;;;;;9.13;5.50;;;40.80;1.00;;;;;;5110113;28;20218;-90
2022/06/07 06:52:24;;;;;;;6.25;4.78;;;41.00;1.00;;;;;;5124676;28;20228;-88
2022/06/07 06:54:51;;;;;;;6.30;5.70;;;41.10;1.00;;;;;;5109676;28;20186;-90
2022/06/07 06:57:18;;;;;;;7.05;5.60;;;41.20;1.00;;;;;;5108968;28;20667;-87
2022/06/07 06:59:45;;;;;;;8.20;5.78;;;41.30;1.00;;;;;;5109800;28;20566;-89
2022/06/07 07:02:13;;;;;;;9.10;7.97;;;40.90;1.00;;;;;;5109608;28;20195;-89
2022/06/07 07:04:40;;;;;;;18.98;11.57;;;40.10;1.00;;;;;;5110791;28;20243;-89
2022/06/07 07:07:07;;;;;;;5.00;4.30;;;39.70;1.00;;;;;;5119790;28;20190;-89
2022/06/07 07:09:35;;;;;;;5.38;4.88;;;39.60;1.00;;;;;;5112137;27;20240;-90
2022/06/07 07:12:02;;;;;;;7.00;4.85;;;39.70;1.00;;;;;;5118937;28;20201;-89
2022/06/07 07:14:29;;;;;;;11.13;6.25;;;39.50;1.00;;;;;;5115380;27;20194;-91
2022/06/07 07:16:57;;;;;;;5.85;5.32;;;39.20;1.00;;;;;;5122220;27;20262;-90
2022/06/07 07:19:24;;;;;;;8.43;6.30;;;38.80;1.00;;;;;;5109220;28;20218;-90
2022/06/07 07:21:52;;;;;;;9.10;8.05;;;38.40;1.00;;;;;;5088390;28;20223;-88
2022/06/07 07:24:21;;;;;;;5.43;4.55;;;38.30;1.00;;;;;;5095621;28;20199;-89
2022/06/07 07:26:50;;;;;;;5.80;4.88;;;38.40;1.00;;;;;;5095428;28;20300;-89
2022/06/07 07:29:20;;;;;;;5.15;4.65;;;38.20;1.00;;;;;;5095367;28;20199;-89
2022/06/07 07:31:47;;;;;;;6.00;5.40;;;37.70;1.00;;;;;;5094991;28;20215;-89
2022/06/07 07:34:16;;;;;;;12.85;7.18;;;37.50;1.00;;;;;;5095073;28;20607;-89
2022/06/07 07:36:46;;;;;;;8.38;7.18;;;37.20;1.00;;;;;;5094864;28;20611;-89
2022/06/07 07:39:14;;;;;;;7.97;6.90;;;37.40;1.00;;;;;;5109375;28;20198;-91
2022/06/07 07:41:45;;;;;;;9.40;6.38;;;37.60;1.00;;;;;;5094765;28;20244;-90
2022/06/07 07:44:16;;;;;;;6.70;6.00;;;37.90;1.00;;;;;;5095038;28;20633;-91
2022/06/07 07:46:45;;;;;;;7.07;6.47;;;38.20;1.00;;;;;;5102913;28;20187;-92
2022/06/07 07:49:13;;;;;;;8.98;5.40;;;38.40;1.00;;;;;;5115158;28;20198;-89
2022/06/07 07:51:44;;;;;;;5.53;3.90;;;38.60;1.00;;;;;;5081207;28;20219;-88
2022/06/07 07:54:14;;;;;;;7.28;6.57;;;38.90;1.00;;;;;;5089434;28;20239;-88
2022/06/07 07:56:41;;;;;;;6.45;5.95;;;39.20;1.00;;;;;;5095070;28;20199;-87
2022/06/07 07:59:11;;;;;;;7.60;6.72;;;39.60;1.00;;;;;;5094478;28;20536;-87
2022/06/07 08:01:41;;;;;;;4.55;4.00;;;39.70;1.00;;;;;;5094930;28;20191;-87
2022/06/07 08:04:09;;;;;;;5.65;5.15;;;39.90;1.00;;;;;;5100684;28;20702;-88
2022/06/07 08:06:36;;;;;;;10.20;9.35;;;40.10;1.00;;;;;;5094818;28;20615;-88
2022/06/07 08:09:08;;;;;;;4.90;4.50;;;40.30;1.00;;;;;;5095595;28;20187;-90
2022/06/07 08:11:37;;;;;;;6.75;5.95;;;39.70;1.00;;;;;;5093955;28;20294;-86
2022/06/07 08:14:08;;;;;;;6.28;5.20;;;38.70;1.00;;;;;;5113443;27;20195;-87
2022/06/07 08:16:36;;;;;;;5.13;4.63;;;37.50;1.00;;;;;;5098649;28;20278;-88
2022/06/07 08:19:06;;;;;;;6.65;6.05;;;36.40;1.00;;;;;;5081179;28;20281;-88
2022/06/07 08:21:33;;;;;;;6.00;5.40;;;35.80;1.00;;;;;;5093913;28;20707;-88
2022/06/07 08:24:01;;;;;;;7.70;5.45;;;35.30;1.00;;;;;;5094213;28;20175;-87
2022/06/07 08:26:30;;;;;;;5.95;5.35;;;35.10;1.00;;;;;;5094063;28;20217;-88
2022/06/07 08:28:57;;;;;;;5.88;5.20;;;35.40;1.00;;;;;;5095586;28;20194;-86
2022/06/07 08:31:26;;;;;;;13.80;11.77;;;36.10;1.00;;;;;;5093534;28;20583;-86
2022/06/07 08:39:26;;;;;;;5.90;5.40;;;36.10;1.00;;;;;;5095641;28;20244;-88
2022/06/07 08:41:55;;;;;;;10.13;5.78;;;35.50;1.00;;;;;;5101940;28;20675;-87
2022/06/07 08:44:27;;;;;;;7.35;6.55;;;35.00;1.00;;;;;;5102400;28;20199;-86
2022/06/07 08:46:59;;;;;;;8.75;6.53;;;34.50;1.00;;;;;;5094604;28;20218;-86
2022/06/07 08:49:27;;;;;;;8.80;6.18;;;33.90;1.00;;;;;;5096804;28;20184;-85
2022/06/07 08:52:03;;;;;;;8.00;5.80;;;33.50;1.00;;;;;;5102098;28;20211;-86
2022/06/07 08:54:36;;;;;;;7.10;4.53;;;33.00;1.00;;;;;;5102132;28;20191;-86
2022/06/07 08:57:14;;;;;;;69.03;45.35;;;32.50;1.00;;;;;;5098289;28;20186;-85
2022/06/07 08:59:43;;;;;;;75.43;51.03;;;32.00;1.00;;;;;;5099351;28;20176;-86
2022/06/07 09:02:27;;;;;;;8.38;7.38;;;31.50;1.00;;;;;;5099414;28;20184;-85
2022/06/07 09:04:56;;;;;;;7.70;7.00;;;31.10;1.00;;;;;;5108538;28;20187;-85
2022/06/07 09:07:25;;;;;;;9.27;6.15;;;30.60;1.00;;;;;;5103239;28;20249;-86
2022/06/07 09:12:41;;;;;;;;;;;30.00;1.00;;;;;;5109696;28;20466;-84
2022/06/07 09:15:13;;;;;;;4.63;3.20;;;29.70;1.00;;;;;;5101407;28;20204;-86
2022/06/07 09:17:46;;;;;;;3.50;3.20;;;29.40;1.00;;;;;;5101428;28;20211;-85
2022/06/07 09:20:15;;;;;;;;;;;29.00;1.00;;;;;;5100854;28;20105;-87
2022/06/07 09:22:52;;;;;;;;;;;28.60;1.00;;;;;;5102666;28;20370;-87
2022/06/07 09:25:25;;;;;;;5.45;2.67;;;28.20;1.00;;;;;;5097493;28;20548;-85
2022/06/07 09:27:52;;;;;;;;;;;27.90;1.00;;;;;;5101147;28;20072;-85
2022/06/07 09:30:25;;;;;;;3.05;2.78;;;27.50;1.00;;;;;;5085757;28;20194;-85
2022/06/07 09:32:52;;;;;;;3.25;2.63;;;27.30;1.00;;;;;;5090851;28;20241;-87
2022/06/07 09:35:21;;;;;;;3.53;3.00;;;26.90;1.00;;;;;;5097715;28;20195;-87
2022/06/07 09:37:54;;;;;;;6.75;4.30;;;26.70;1.00;;;;;;5099643;28;20653;-85
2022/06/07 09:40:28;;;;;;;15.00;10.38;;;26.40;1.00;;;;;;5089885;28;20202;-85
2022/06/07 09:42:57;;;;;;;;;;;26.10;1.00;;;;;;5100318;28;20052;-86
2022/06/07 09:45:28;;;;;;;10.43;5.10;;;25.90;1.00;;;;;;5094199;28;20199;-85
2022/06/07 09:47:55;;;;;;;3.97;3.30;;;25.70;1.00;;;;;;5100141;28;20277;-85
2022/06/07 09:50:26;;;;;;;4.05;3.45;;;25.50;1.00;;;;;;5115898;28;20191;-86
2022/06/07 09:52:57;;;;;;;10.77;7.15;;;25.40;1.00;;;;;;5107936;28;20194;-85
2022/06/07 09:55:33;;;;;;;9.00;3.58;;;25.20;1.00;;;;;;5101993;28;20210;-86
2022/06/07 09:58:23;;;;;;;22.02;12.55;;;25.20;1.00;;;;;;5098205;28;20202;-86
2022/06/07 10:01:00;;;;;;;5.30;3.10;;;25.20;1.00;;;;;;5099500;28;20200;-86
2022/06/07 10:03:38;;;;;;;16.60;4.03;;;25.20;1.00;;;;;;5098105;28;20191;-86
2022/06/07 10:06:21;;;;;;;5.65;3.35;;;25.20;1.00;;;;;;5086080;28;20187;-88
2022/06/07 10:09:05;;;;;;;6.10;2.80;;;25.30;1.00;;;;;;5100966;28;20252;-85
2022/06/07 10:11:37;;;;;;;8.55;2.50;;;25.30;1.00;;;;;;5098209;28;20233;-85
2022/06/07 10:14:21;;;;;;;8.32;4.55;;;25.40;1.00;;;;;;5099972;28;20188;-85
2022/06/07 10:16:58;;;;;;;2.67;2.20;;;25.60;1.00;;;;;;5100505;28;20195;-85
2022/06/07 10:19:41;;;;;;;3.50;2.78;;;25.70;1.00;;;;;;5112570;28;20199;-86
2022/06/07 10:22:35;;;;;;;9.75;3.72;;;25.80;1.00;;;;;;5099930;28;20195;-85
2022/06/07 10:25:13;;;;;;;7.10;3.30;;;25.70;1.00;;;;;;5102033;28;20199;-85
2022/06/07 10:27:51;;;;;;;10.60;3.88;;;25.80;1.00;;;;;;5101515;28;20213;-86
2022/06/07 10:30:22;;;;;;;5.53;4.63;;;25.80;1.00;;;;;;5101454;28;20195;-85
2022/06/07 10:33:17;;;;;;;8.45;4.97;;;25.60;1.00;;;;;;5098234;28;20230;-88
2022/06/07 10:35:51;;;;;;;9.15;7.55;;;25.60;1.00;;;;;;5091803;28;20200;-86
2022/06/07 10:38:41;;;;;;;5.38;4.55;;;25.50;1.00;;;;;;5095927;28;20275;-87
2022/06/07 10:41:19;;;;;;;4.65;3.35;;;25.40;1.00;;;;;;5091665;28;20641;-87
2022/06/07 10:43:53;;;;;;;4.25;3.30;;;25.30;1.00;;;;;;5092496;28;20231;-87
2022/06/07 10:46:22;;;;;;;14.48;8.63;;;25.20;1.00;;;;;;5096705;28;20187;-86
2022/06/07 10:49:02;;;;;;;27.50;7.15;;;25.20;1.00;;;;;;5092173;28;20202;-85
2022/06/07 10:54:22;;;;;;;9.38;6.47;;;25.20;1.00;;;;;;5092002;28;20199;-87
2022/06/07 10:56:57;;;;;;;4.72;3.63;;;25.30;1.00;;;;;;5095992;28;20206;-86
2022/06/07 10:59:28;;;;;;;4.63;4.20;;;25.30;1.00;;;;;;5087389;28;20195;-85
2022/06/07 11:02:01;;;;;;;4.95;3.72;;;25.30;1.00;;;;;;5095531;28;20187;-85
2022/06/07 11:10:12;;;;;;;6.35;3.67;;;24.90;1.00;;;;;;5095345;28;20655;-85
2022/06/07 11:12:51;;;;;;;8.18;5.18;;;24.70;1.00;;;;;;5094993;28;20328;-84
2022/06/07 11:15:26;;;;;;;5.32;4.25;;;24.60;1.00;;;;;;5095373;28;20086;-84
2022/06/07 11:18:03;;;;;;;7.95;4.78;;;24.50;1.00;;;;;;5095265;28;20188;-85
2022/06/07 11:20:34;;;;;;;13.20;8.20;;;24.40;1.00;;;;;;5095108;28;20215;-84
2022/06/07 11:23:13;;;;;;;23.60;14.57;;;24.30;1.00;;;;;;5109581;28;20201;-85
2022/06/07 11:25:44;;;;;;;12.43;8.20;;;24.30;1.00;;;;;;5095355;28;20531;-86
2022/06/07 11:28:15;;;;;;;;;;;24.10;1.00;;;;;;5095023;28;20084;-85
2022/06/07 11:30:52;;;;;;;11.50;8.25;;;24.10;1.00;;;;;;5094825;28;20206;-85
2022/06/07 11:33:42;;;;;;;12.48;6.15;;;24.00;1.00;;;;;;5095316;28;20157;-85
2022/06/07 11:36:29;;;;;;;6.20;4.80;;;23.80;1.00;;;;;;5094923;28;20663;-86
2022/06/07 11:39:19;;;;;;;;;;;23.80;1.00;;;;;;5095766;28;19920;-86
2022/06/07 11:41:47;;;;;;;;;;;23.70;1.00;;;;;;5095330;28;20015;-85
2022/06/07 11:44:28;;;;;;;;;;;23.70;1.00;;;;;;5101556;28;19920;-86
2022/06/07 11:46:59;;;;;;;;;;;23.70;1.00;;;;;;5094678;28;20320;-85
2022/06/07 11:49:34;;;;;;;;;;;23.70;1.00;;;;;;5094869;28;19920;-86
2022/06/07 11:52:02;;;;;;;;;;;23.60;1.00;;;;;;5094645;28;19931;-88
2022/06/07 11:54:30;;;;;;;;;;;23.60;1.00;;;;;;5098332;28;19927;-87
2022/06/07 11:56:58;;;;;;;;;;;23.50;1.00;;;;;;5094927;28;19920;-86
2022/06/07 11:59:34;;;;;;;;;;;23.40;1.00;;;;;;5097982;28;19935;-93
2022/06/07 12:02:22;;;;;;;;;;;23.40;1.00;;;;;;5094845;28;20337;-87
2022/06/07 12:04:54;;;;;;;;;;;23.40;1.00;;;;;;5098290;28;19982;-87
2022/06/07 12:07:23;;;;;;;;;;;23.40;1.00;;;;;;5096906;28;20510;-85
2022/06/07 12:09:53;;;;;;;;;;;23.40;1.00;;;;;;5094652;28;19999;-84
2022/06/07 12:12:22;;;;;;;;;;;23.40;1.00;;;;;;5094592;28;19920;-84
2022/06/07 12:14:52;;;;;;;;;;;23.40;1.00;;;;;;5094528;28;20430;-87
2022/06/07 12:17:21;;;;;;;;;;;23.30;1.00;;;;;;5096299;28;19965;-85
2022/06/07 12:19:48;;;;;;;;;;;23.30;1.00;;;;;;5094058;28;20019;-88
2022/06/07 12:22:16;;;;;;;;;;;23.20;1.00;;;;;;5094179;28;20400;-86
2022/06/07 12:24:43;;;;;;;;;;;23.20;1.00;;;;;;5096031;28;19924;-85
2022/06/07 12:27:11;;;;;;;;;;;23.10;1.00;;;;;;5094296;28;19965;-85
2022/06/07 12:29:45;;;;;;;10.90;7.75;;;23.10;1.00;;;;;;5093692;28;20495;-85
2022/06/07 12:32:19;;;;;;;12.90;9.10;;;23.00;1.00;;;;;;5094075;28;20625;-87
2022/06/07 12:34:46;;;;;;;23.70;14.90;;;23.00;1.00;;;;;;5094052;28;20215;-85
2022/06/07 12:37:25;;;;;;;9.98;6.78;;;22.90;1.00;;;;;;5093950;28;20188;-86
2022/06/07 12:39:56;;;;;;;6.38;4.68;;;22.90;1.00;;;;;;5094070;28;20271;-87
2022/06/07 12:42:25;;;;;;;6.90;4.75;;;22.90;1.00;;;;;;5094149;28;20195;-89
2022/06/07 12:44:53;;;;;;;;;;;22.90;1.00;;;;;;5094481;28;20673;-89
2022/06/07 12:47:26;;;;;;;;;;;22.90;1.00;;;;;;5094505;28;19947;-89
2022/06/07 12:49:54;;;;;;;;;;;23.00;1.00;;;;;;5094420;28;19920;-90
2022/06/07 12:52:21;;;;;;;;;;;23.00;1.00;;;;;;5094367;28;19920;-87
2022/06/07 12:54:50;;;;;;;;;;;23.00;1.00;;;;;;5090374;28;20263;-87
2022/06/07 13:16:42;;;;;;;;;;;23.20;1.00;;;;;;5095447;28;20015;-88
2022/06/07 13:19:25;;;;;;;3.50;3.20;;;22.90;1.00;;;;;;5092684;28;20448;-89
2022/06/07 13:22:03;;;;;;;5.13;3.85;;;22.80;1.00;;;;;;5090228;28;20237;-87
2022/06/07 13:24:42;;;;;;;4.68;3.72;;;22.70;1.00;;;;;;5093030;28;20200;-93
2022/06/07 13:27:33;;;;;;;5.15;4.18;;;22.50;1.00;;;;;;5109794;28;20191;-88
2022/06/07 13:30:00;;;;;;;5.90;4.68;;;22.40;1.00;;;;;;5117564;28;20187;-87
2022/06/07 13:32:30;;;;;;;6.40;4.30;;;22.40;1.00;;;;;;5108658;28;20278;-89
2022/06/07 13:34:58;;;;;;;;;;;22.40;1.00;;;;;;5110571;28;19958;-88
2022/06/07 13:37:25;;;;;;;;;;;22.40;1.00;;;;;;5111554;28;20042;-88
2022/06/07 13:40:05;;;;;;;;;;;22.50;1.00;;;;;;5114363;28;19928;-88
2022/06/07 13:42:32;;;;;;;;;;;22.50;1.00;;;;;;5123946;28;19924;-89
2022/06/07 13:45:01;;;;;;;;;;;22.60;1.00;;;;;;5096130;28;19974;-90
2022/06/07 13:47:34;;;;;;;;;;;22.60;1.00;;;;;;5100362;28;20328;-88
2022/06/07 13:55:50;;;;;;;;;;;22.30;1.00;;;;;;5096375;28;20060;-89
2022/06/07 13:58:18;;;;;;;6.20;4.60;;;22.20;1.00;;;;;;5106838;28;20053;-90
2022/06/07 14:00:46;;;;;;;6.63;4.22;;;22.10;1.00;;;;;;5099724;28;20191;-88
2022/06/07 14:03:22;;;;;;;5.25;4.18;;;22.00;1.00;;;;;;5111282;28;20624;-87
2022/06/07 14:05:50;;;;;;;11.88;7.65;;;21.90;1.00;;;;;;5102743;28;20222;-87
2022/06/07 14:08:18;;;;;;;10.27;4.47;;;21.80;1.00;;;;;;5102090;28;20238;-88
2022/06/07 14:10:46;;;;;;;5.28;4.30;;;21.80;1.00;;;;;;5098717;28;20536;-89
2022/06/07 14:13:13;;;;;;;6.90;3.58;;;21.70;1.00;;;;;;5084858;28;20204;-88
2022/06/07 14:15:41;;;;;;;5.45;4.00;;;21.70;1.00;;;;;;5090888;28;20192;-89
2022/06/07 14:18:13;;;;;;;7.57;3.83;;;21.70;1.00;;;;;;5091840;28;20220;-88
2022/06/07 14:20:42;;;;;;;5.25;4.07;;;21.60;1.00;;;;;;5102409;28;20555;-87
2022/06/07 14:23:13;;;;;;;7.65;4.32;;;21.60;1.00;;;;;;5086551;28;20207;-88
2022/06/07 14:25:40;;;;;;;5.80;4.05;;;21.60;11.80;;;;;;5080246;28;20650;-88
2022/06/07 14:28:12;;;;;;;6.47;4.30;;;21.60;2.30;;;;;;5097279;28;20198;-87
2022/06/07 14:30:47;;;;;;;6.13;4.55;;;21.50;11.90;;;;;;5096374;28;20195;-89
2022/06/07 14:33:16;;;;;;;6.20;5.30;;;21.40;34.20;;;;;;5116815;28;20203;-89
2022/06/07 14:35:46;;;;;;;7.80;4.75;;;21.30;66.50;;;;;;5094791;28;20191;-88
2022/06/07 14:38:16;;;;;;;6.03;4.88;;;21.30;93.30;;;;;;5094388;28;20210;-89
2022/06/07 14:40:43;;;;;;;6.40;5.30;;;21.30;99.90;;;;;;5092676;28;20274;-89
2022/06/07 14:43:13;;;;;;;9.07;5.03;;;21.20;99.90;;;;;;5100220;28;20226;-89
2022/06/07 14:45:45;;;;;;;5.45;4.95;;;21.20;99.90;;;;;;5103972;28;20602;-86
2022/06/07 14:48:27;;;;;;;6.43;5.53;;;21.20;99.90;;;;;;5109369;28;20187;-86
2022/06/07 14:50:55;;;;;;;6.68;4.72;;;21.30;99.90;;;;;;5099744;28;20191;-88
2022/06/07 14:53:23;;;;;;;8.40;4.80;;;21.40;99.90;;;;;;5113623;28;20189;-88
2022/06/07 14:55:50;;;;;;;5.53;5.03;;;21.50;99.90;;;;;;5106892;28;20199;-87
2022/06/07 14:58:17;;;;;;;9.73;5.15;;;21.60;99.90;;;;;;5088663;28;20212;-88
2022/06/07 15:00:47;;;;;;;6.35;4.75;;;21.70;99.90;;;;;;5114596;28;20225;-88
2022/06/07 15:05:59;;;;;;;10.70;7.63;;;22.00;99.90;;;;;;5113929;28;20644;-86
2022/06/07 15:08:27;;;;;;;10.82;5.20;;;22.10;99.90;;;;;;5087484;28;20728;-86
2022/06/07 15:10:54;;;;;;;6.20;5.18;;;22.10;92.40;;;;;;5086082;28;20636;-88
2022/06/07 15:13:24;;;;;;;5.95;4.85;;;22.20;88.50;;;;;;5079540;28;20195;-87
2022/06/07 15:15:54;;;;;;;5.28;4.78;;;22.10;99.90;;;;;;5093446;28;20272;-87